Time;durP1;ratioP1;P1;durP2;ratioP2;P2;SDS_P1;SDS_P2;PMS_P1;PMS_P2;Temp;Humidity;BMP_temperature;BMP_pressure;BME280_temperature;BME280_humidity;BME280_pressure;Samples;Min_cycle;Max_cycle;Signal;HPM_P1;HPM_P2
2022/11/30 00:00:15;;;;;;;0.10;0.10;;;8.60;99.90;;;;;;5066605;28;20102;-87
2022/11/30 00:02:42;;;;;;;0.00;0.00;;;;;;;;;;5081461;28;20042;-86
2022/11/30 00:05:09;;;;;;;0.10;0.10;;;8.50;99.90;;;;;;5062497;28;20120;-85
2022/11/30 00:07:38;;;;;;;0.10;0.10;;;8.30;99.90;;;;;;5072530;28;20044;-83
2022/11/30 00:10:07;;;;;;;0.10;0.10;;;8.30;99.90;;;;;;5068958;28;20074;-84
2022/11/30 00:12:34;;;;;;;0.10;0.10;;;;;;;;;;5077412;28;20041;-84
2022/11/30 00:15:01;;;;;;;0.05;0.05;;;8.30;99.90;;;;;;5071012;28;20537;-85
2022/11/30 00:17:29;;;;;;;0.10;0.10;;;;;;;;;;5082694;28;20571;-83
2022/11/30 00:19:56;;;;;;;0.10;0.10;;;;;;;;;;5072430;28;20044;-84
2022/11/30 00:22:23;;;;;;;0.10;0.10;;;;;;;;;;5069887;28;20041;-85
2022/11/30 00:24:51;;;;;;;0.10;0.10;;;8.00;99.90;;;;;;5071040;28;20052;-86
2022/11/30 00:27:18;;;;;;;0.10;0.10;;;8.00;99.90;;;;;;5073906;28;20041;-85
2022/11/30 00:29:46;;;;;;;0.10;0.10;;;;;;;;;;5077456;28;20045;-85
2022/11/30 00:32:13;;;;;;;0.10;0.10;;;;;;;;;;5067521;28;20121;-84
2022/11/30 00:34:40;;;;;;;0.10;0.10;;;8.00;99.90;;;;;;5078818;28;20048;-85
2022/11/30 00:37:07;;;;;;;0.10;0.10;;;8.00;99.90;;;;;;5069789;28;20040;-84
2022/11/30 00:39:34;;;;;;;0.10;0.10;;;7.90;99.90;;;;;;5089811;28;20102;-85
2022/11/30 00:42:03;;;;;;;0.10;0.10;;;7.90;99.90;;;;;;5062569;28;20520;-84
2022/11/30 00:44:30;;;;;;;0.10;0.10;;;7.90;99.90;;;;;;5069192;28;20060;-84
2022/11/30 00:46:57;;;;;;;0.10;0.10;;;;;;;;;;5067377;28;20524;-85
2022/11/30 00:49:24;;;;;;;0.10;0.10;;;;;;;;;;5074984;28;20578;-84
2022/11/30 00:51:52;;;;;;;0.10;0.10;;;8.00;99.90;;;;;;5068149;28;20076;-84
2022/11/30 00:54:19;;;;;;;0.10;0.10;;;;;;;;;;5064388;28;20398;-84
2022/11/30 00:56:46;;;;;;;0.10;0.10;;;;;;;;;;5072133;28;20138;-84
2022/11/30 00:59:15;;;;;;;0.10;0.10;;;7.90;99.90;;;;;;5069022;28;20041;-84
2022/11/30 01:01:42;;;;;;;0.10;0.10;;;;;;;;;;5065224;28;20052;-85
2022/11/30 01:04:10;;;;;;;0.10;0.10;;;;;;;;;;5067860;28;20048;-85
2022/11/30 01:06:37;;;;;;;0.10;0.10;;;;;;;;;;5070479;28;20106;-83
2022/11/30 01:09:04;;;;;;;0.10;0.10;;;7.90;99.90;;;;;;5065402;28;20087;-85
2022/11/30 01:11:31;;;;;;;0.10;0.10;;;8.00;99.90;;;;;;5072445;28;20048;-85
2022/11/30 01:13:59;;;;;;;0.10;0.10;;;8.00;99.90;;;;;;5068153;28;20048;-85
2022/11/30 01:16:30;;;;;;;0.10;0.10;;;8.00;99.90;;;;;;5071637;28;20044;-85
2022/11/30 01:18:58;;;;;;;0.10;0.10;;;;;;;;;;5065678;28;20045;-85
2022/11/30 01:21:27;;;;;;;0.10;0.10;;;7.90;99.90;;;;;;5072039;28;20475;-85
2022/11/30 01:23:54;;;;;;;0.10;0.10;;;7.80;99.90;;;;;;5062379;28;20102;-85
2022/11/30 01:26:23;;;;;;;0.10;0.10;;;7.90;99.90;;;;;;5067089;28;20044;-85
2022/11/30 01:28:51;;;;;;;0.10;0.10;;;7.80;99.90;;;;;;5063176;28;20401;-85
2022/11/30 01:31:19;;;;;;;0.10;0.10;;;7.80;99.90;;;;;;5066867;28;20044;-84
2022/11/30 01:33:49;;;;;;;0.10;0.10;;;8.10;99.90;;;;;;5064620;28;20057;-84
2022/11/30 01:36:18;;;;;;;0.10;0.10;;;8.00;99.90;;;;;;5070595;28;20040;-85
2022/11/30 01:38:47;;;;;;;0.10;0.10;;;7.90;99.90;;;;;;5065162;28;20060;-85
2022/11/30 01:41:20;;;;;;;0.10;0.10;;;8.00;99.90;;;;;;5083975;28;20040;-85
2022/11/30 01:43:49;;;;;;;0.10;0.10;;;8.00;99.90;;;;;;5068657;28;21322;-85
2022/11/30 01:46:21;;;;;;;0.10;0.10;;;8.00;99.90;;;;;;5064439;28;20408;-85
2022/11/30 01:48:58;;;;;;;0.10;0.10;;;8.20;99.90;;;;;;5070388;28;20043;-85
2022/11/30 01:51:30;;;;;;;0.10;0.10;;;8.00;99.90;;;;;;5073836;28;20048;-85
2022/11/30 01:53:58;;;;;;;0.10;0.10;;;8.00;99.90;;;;;;5066128;28;20045;-86
2022/11/30 01:56:25;;;;;;;0.10;0.10;;;;;;;;;;5062968;28;20053;-85
2022/11/30 01:58:53;;;;;;;0.10;0.10;;;;;;;;;;5068748;28;20154;-86
2022/11/30 02:01:20;;;;;;;0.10;0.10;;;7.90;99.90;;;;;;5058296;28;20459;-85
2022/11/30 02:03:55;;;;;;;0.10;0.10;;;7.80;99.90;;;;;;5063965;28;20060;-86
2022/11/30 02:06:24;;;;;;;0.10;0.10;;;7.80;99.90;;;;;;5066330;28;20041;-86
2022/11/30 02:08:52;;;;;;;0.10;0.10;;;7.80;99.90;;;;;;5061588;28;20041;-86
2022/11/30 02:11:19;;;;;;;0.10;0.10;;;;;;;;;;5060626;28;20040;-85
2022/11/30 02:14:00;;;;;;;0.10;0.10;;;7.80;99.90;;;;;;5068996;28;20467;-85
2022/11/30 02:16:34;;;;;;;0.10;0.10;;;8.00;99.90;;;;;;5068122;28;20056;-86
2022/11/30 02:19:19;;;;;;;0.10;0.10;;;7.90;99.90;;;;;;5075566;28;20112;-85
2022/11/30 02:21:51;;;;;;;0.10;0.10;;;8.00;99.90;;;;;;5079433;28;20048;-86
2022/11/30 02:24:41;;;;;;;0.10;0.10;;;8.10;99.90;;;;;;5062586;28;20045;-85
2022/11/30 02:27:28;;;;;;;0.10;0.10;;;8.20;99.90;;;;;;5072838;28;20587;-86
2022/11/30 02:30:04;;;;;;;0.10;0.10;;;8.30;99.90;;;;;;5067651;28;20045;-84
2022/11/30 02:32:34;;;;;;;0.10;0.10;;;8.90;99.90;;;;;;5074268;28;20049;-84
2022/11/30 02:35:05;;;;;;;0.10;0.10;;;8.30;99.90;;;;;;5083381;28;20053;-85
2022/11/30 02:37:33;;;;;;;;;;;8.30;99.90;;;;;;5069849;28;20048;-84
2022/11/30 02:40:00;;;;;;;0.10;0.10;;;8.40;99.90;;;;;;5078316;28;19928;-85
2022/11/30 02:42:27;;;;;;;0.05;0.05;;;;;;;;;;5068086;28;20052;-85
2022/11/30 02:44:54;;;;;;;0.10;0.10;;;;;;;;;;5069307;28;20102;-84
2022/11/30 02:47:30;;;;;;;0.10;0.10;;;8.40;99.90;;;;;;5070971;28;20048;-85
2022/11/30 02:50:00;;;;;;;0.10;0.10;;;8.40;99.90;;;;;;5067468;28;20416;-86
2022/11/30 02:52:29;;;;;;;0.10;0.10;;;8.40;99.90;;;;;;5085650;28;20521;-84
2022/11/30 02:54:59;;;;;;;0.10;0.10;;;8.40;99.90;;;;;;5075332;28;20105;-85
2022/11/30 02:57:27;;;;;;;0.10;0.10;;;;;;;;;;5064335;28;20441;-85
2022/11/30 02:59:54;;;;;;;0.10;0.10;;;;;;;;;;5068997;28;20119;-86
2022/11/30 03:02:23;;;;;;;0.10;0.10;;;8.50;99.90;;;;;;5069353;28;20052;-84
2022/11/30 03:04:50;;;;;;;0.00;0.00;;;;;;;;;;5064033;28;20438;-85
2022/11/30 03:07:17;;;;;;;0.10;0.10;;;;;;;;;;5069553;28;20381;-85
2022/11/30 03:09:44;;;;;;;0.10;0.10;;;;;;;;;;5061880;28;20761;-84
2022/11/30 03:12:12;;;;;;;0.10;0.10;;;;;;;;;;5071323;28;20117;-85
2022/11/30 03:14:39;;;;;;;0.10;0.10;;;8.30;99.90;;;;;;5073562;28;20052;-84
2022/11/30 03:17:06;;;;;;;0.10;0.10;;;;;;;;;;5070801;28;20044;-84
2022/11/30 03:19:34;;;;;;;0.10;0.10;;;8.10;99.90;;;;;;5070435;28;20040;-85
2022/11/30 03:22:02;;;;;;;0.10;0.10;;;;;;;;;;5066015;28;20056;-84
2022/11/30 03:24:29;;;;;;;0.10;0.10;;;;;;;;;;5066176;28;20079;-84
2022/11/30 03:26:56;;;;;;;0.10;0.10;;;8.20;99.90;;;;;;5063562;28;20064;-85
2022/11/30 03:29:23;;;;;;;0.10;0.10;;;;;;;;;;5067316;28;20455;-84
2022/11/30 03:31:50;;;;;;;0.10;0.10;;;8.10;99.90;;;;;;5066235;28;20049;-84
2022/11/30 03:34:17;;;;;;;0.10;0.10;;;;;;;;;;5075796;28;20045;-84
2022/11/30 03:36:46;;;;;;;0.10;0.10;;;8.00;99.90;;;;;;5062158;28;20049;-85
2022/11/30 03:39:13;;;;;;;0.10;0.10;;;7.90;99.90;;;;;;5068714;28;20083;-84
2022/11/30 03:41:40;;;;;;;0.10;0.10;;;7.90;99.90;;;;;;5066238;28;20048;-84
2022/11/30 03:44:07;;;;;;;0.10;0.10;;;;;;;;;;5071160;28;20412;-85
2022/11/30 03:46:34;;;;;;;0.10;0.10;;;7.80;99.90;;;;;;5064003;28;20567;-85
2022/11/30 03:49:01;;;;;;;0.10;0.10;;;;;;;;;;5067376;28;20437;-84
2022/11/30 03:51:29;;;;;;;0.10;0.10;;;;;;;;;;5072648;28;20053;-84
2022/11/30 03:53:57;;;;;;;0.10;0.10;;;7.70;99.90;;;;;;5069598;28;20057;-85
2022/11/30 03:56:25;;;;;;;0.05;0.05;;;;;;;;;;5070123;28;20048;-84
2022/11/30 03:58:52;;;;;;;0.10;0.10;;;;;;;;;;5070155;28;20044;-85
2022/11/30 04:01:22;;;;;;;0.10;0.10;;;7.80;99.90;;;;;;5065601;28;20044;-85
2022/11/30 04:03:50;;;;;;;0.10;0.10;;;7.70;99.90;;;;;;5068570;28;20075;-85
2022/11/30 04:06:18;;;;;;;0.10;0.10;;;7.90;99.90;;;;;;5066116;28;20523;-83
2022/11/30 04:08:46;;;;;;;0.10;0.10;;;7.90;99.90;;;;;;5082129;28;20257;-84
2022/11/30 04:11:14;;;;;;;0.10;0.10;;;7.90;99.90;;;;;;5064806;28;20049;-84
2022/11/30 04:13:42;;;;;;;0.10;0.10;;;7.80;99.90;;;;;;5069967;28;20072;-84
2022/11/30 04:16:09;;;;;;;0.10;0.10;;;7.80;99.90;;;;;;5062778;28;20516;-85
2022/11/30 04:18:37;;;;;;;0.10;0.10;;;7.80;99.90;;;;;;5071640;28;20110;-86
2022/11/30 04:21:06;;;;;;;0.10;0.10;;;7.70;99.90;;;;;;5089197;28;20112;-84
2022/11/30 04:23:35;;;;;;;0.10;0.10;;;7.70;99.90;;;;;;5071790;28;20451;-86
2022/11/30 04:26:04;;;;;;;0.10;0.10;;;7.70;99.90;;;;;;5073664;28;20066;-85
2022/11/30 04:28:33;;;;;;;0.10;0.10;;;7.60;99.90;;;;;;5076464;28;20540;-85
2022/11/30 04:31:01;;;;;;;0.10;0.10;;;;;;;;;;5070358;28;20102;-85
2022/11/30 04:33:28;;;;;;;0.10;0.10;;;;;;;;;;5074900;28;20044;-86
2022/11/30 04:35:57;;;;;;;0.10;0.10;;;7.70;99.90;;;;;;5073983;28;20061;-85
2022/11/30 04:38:24;;;;;;;0.10;0.10;;;7.60;99.90;;;;;;5073558;28;20090;-86
2022/11/30 04:40:52;;;;;;;0.10;0.10;;;;;;;;;;5069940;28;20056;-85
2022/11/30 04:43:19;;;;;;;0.10;0.10;;;;;;;;;;5067527;28;20709;-85
2022/11/30 04:45:48;;;;;;;0.10;0.10;;;7.50;99.90;;;;;;5075958;28;20053;-86
2022/11/30 04:48:16;;;;;;;0.10;0.10;;;7.50;99.90;;;;;;5073512;28;20097;-85
2022/11/30 04:50:44;;;;;;;0.10;0.10;;;7.50;99.90;;;;;;5068160;28;20044;-86
2022/11/30 04:53:11;;;;;;;0.10;0.10;;;7.50;99.90;;;;;;5081919;28;20048;-86
2022/11/30 04:56:26;;;;;;;0.10;0.10;;;7.60;99.90;;;;;;5084257;28;20052;-85
2022/11/30 04:59:34;;;;;;;0.10;0.10;;;7.50;99.90;;;;;;5067374;28;20052;-85
2022/11/30 05:02:02;;;;;;;0.10;0.10;;;7.50;99.90;;;;;;5075711;28;20045;-86
2022/11/30 05:04:30;;;;;;;0.10;0.10;;;;;;;;;;5075067;28;20112;-85
2022/11/30 05:06:57;;;;;;;0.10;0.10;;;7.40;99.90;;;;;;5088082;28;20057;-85
2022/11/30 05:09:24;;;;;;;0.10;0.10;;;;;;;;;;5076848;28;20048;-84
2022/11/30 05:11:51;;;;;;;0.10;0.10;;;;;;;;;;5072459;28;20074;-85
2022/11/30 05:14:18;;;;;;;0.10;0.10;;;7.50;99.90;;;;;;5070417;28;20443;-86
2022/11/30 05:16:46;;;;;;;0.10;0.10;;;7.50;99.90;;;;;;5067852;28;20064;-85
2022/11/30 05:19:15;;;;;;;0.10;0.10;;;7.50;99.90;;;;;;5068575;28;20041;-82
2022/11/30 05:21:42;;;;;;;0.10;0.10;;;;;;;;;;5080759;28;20107;-85
2022/11/30 05:24:11;;;;;;;0.10;0.10;;;7.50;99.90;;;;;;5069174;28;20043;-85
2022/11/30 05:26:38;;;;;;;0.10;0.10;;;7.50;99.90;;;;;;5071741;28;20075;-87
2022/11/30 05:29:06;;;;;;;0.20;0.20;;;;;;;;;;5076971;28;20037;-85
2022/11/30 05:31:33;;;;;;;0.13;0.13;;;;;;;;;;5074775;28;20044;-85
2022/11/30 05:34:00;;;;;;;0.10;0.10;;;7.50;99.90;;;;;;5073656;28;20113;-85
2022/11/30 05:36:29;;;;;;;0.13;0.13;;;7.40;99.90;;;;;;5074782;28;20791;-85
2022/11/30 05:38:55;;;;;;;0.10;0.10;;;9.10;99.90;;;;;;5070292;28;21427;-85
2022/11/30 05:41:22;;;;;;;0.15;0.15;;;7.40;99.90;;;;;;5070563;28;20049;-85
2022/11/30 05:43:49;;;;;;;0.20;0.20;;;7.40;99.90;;;;;;5078495;28;20527;-84
2022/11/30 05:46:16;;;;;;;0.20;0.20;;;;;;;;;;5067900;28;20056;-86
2022/11/30 05:48:43;;;;;;;0.13;0.13;;;7.20;99.90;;;;;;5070325;28;20049;-86
2022/11/30 05:59:28;;;;;;;0.20;0.20;;;7.20;99.90;;;;;;5047337;28;20045;-88
2022/11/30 06:01:55;;;;;;;0.10;0.10;;;;;;;;;;5034468;28;20044;-86
2022/11/30 06:04:22;;;;;;;0.30;0.30;;;7.10;99.90;;;;;;5039741;28;20599;-88
2022/11/30 06:06:51;;;;;;;0.20;0.20;;;;;;;;;;5037885;28;20076;-85
2022/11/30 06:09:17;;;;;;;0.20;0.20;;;7.10;99.90;;;;;;5033737;28;20041;-85
2022/11/30 06:11:45;;;;;;;0.30;0.30;;;;;;;;;;5049105;28;20447;-90
2022/11/30 06:14:11;;;;;;;0.30;0.30;;;6.60;99.90;;;;;;5027266;28;20045;-86
2022/11/30 06:16:40;;;;;;;0.20;0.20;;;7.00;99.90;;;;;;5031975;28;20068;-87
2022/11/30 06:19:07;;;;;;;0.20;0.20;;;;;;;;;;5030683;28;20042;-87
2022/11/30 06:21:34;;;;;;;0.20;0.20;;;;;;;;;;5033792;28;20049;-86
2022/11/30 06:24:01;;;;;;;0.15;0.15;;;;;;;;;;5049789;28;20049;-88
2022/11/30 06:26:28;;;;;;;0.20;0.20;;;7.20;99.90;;;;;;5017836;28;21206;-89
2022/11/30 06:28:55;;;;;;;0.20;0.20;;;;;;;;;;5049572;28;20092;-85
2022/11/30 06:31:22;;;;;;;0.20;0.20;;;7.30;99.90;;;;;;5052941;28;20045;-85
2022/11/30 06:33:50;;;;;;;0.20;0.20;;;7.20;99.90;;;;;;5034673;28;20490;-86
2022/11/30 06:36:21;;;;;;;0.20;0.20;;;7.10;99.90;;;;;;5021504;28;20084;-87
2022/11/30 06:38:48;;;;;;;0.10;0.10;;;;;;;;;;5019561;28;20076;-87
2022/11/30 06:41:15;;;;;;;0.15;0.15;;;;;;;;;;5033218;28;20041;-86
2022/11/30 06:43:42;;;;;;;0.10;0.10;;;7.20;99.90;;;;;;5049287;28;20408;-88
2022/11/30 06:46:10;;;;;;;0.10;0.10;;;;;;;;;;5029788;28;20041;-86
2022/11/30 06:48:37;;;;;;;0.10;0.10;;;;;;;;;;5032939;28;20049;-87
2022/11/30 06:51:07;;;;;;;0.10;0.10;;;7.30;99.90;;;;;;5027970;28;20416;-88
2022/11/30 06:53:34;;;;;;;0.10;0.10;;;7.30;99.90;;;;;;5034200;28;20566;-88
2022/11/30 06:56:04;;;;;;;0.10;0.10;;;7.30;99.90;;;;;;5035966;28;20482;-85
2022/11/30 06:58:37;;;;;;;0.10;0.10;;;7.20;99.90;;;;;;5022722;28;20053;-85
2022/11/30 07:01:04;;;;;;;0.10;0.10;;;7.30;99.90;;;;;;5007086;28;20459;-84
2022/11/30 07:03:31;;;;;;;0.10;0.10;;;7.20;99.90;;;;;;5016266;28;20132;-85
2022/11/30 07:05:58;;;;;;;0.10;0.10;;;;;;;;;;5051465;28;20049;-85
2022/11/30 07:08:26;;;;;;;0.10;0.10;;;7.20;99.90;;;;;;5048589;28;20466;-86
2022/11/30 07:10:53;;;;;;;0.10;0.10;;;;;;;;;;5042688;28;20111;-86
2022/11/30 07:13:21;;;;;;;0.10;0.10;;;;;;;;;;5053622;28;20083;-86
2022/11/30 07:15:48;;;;;;;0.10;0.10;;;;;;;;;;5018904;28;20085;-87
2022/11/30 07:18:15;;;;;;;0.10;0.10;;;;;;;;;;5051933;28;20372;-86
2022/11/30 07:20:42;;;;;;;0.10;0.10;;;7.00;99.90;;;;;;5046705;28;20072;-87
2022/11/30 07:26:06;;;;;;;0.10;0.10;;;7.00;99.90;;;;;;5049063;28;20043;-87
2022/11/30 07:28:33;;;;;;;0.10;0.10;;;;;;;;;;5012635;28;20045;-87
2022/11/30 07:31:00;;;;;;;0.10;0.10;;;7.00;99.90;;;;;;5034233;28;20064;-86
2022/11/30 07:33:27;;;;;;;0.10;0.10;;;;;;;;;;5050422;28;20172;-86
2022/11/30 07:35:55;;;;;;;0.10;0.10;;;;;;;;;;5047925;28;20067;-86
2022/11/30 07:38:22;;;;;;;0.10;0.10;;;;;;;;;;5031893;28;20076;-86
2022/11/30 07:40:49;;;;;;;0.10;0.10;;;;;;;;;;5026259;28;20045;-87
2022/11/30 07:43:17;;;;;;;0.10;0.10;;;6.60;99.90;;;;;;5052455;28;20078;-90
2022/11/30 07:45:50;;;;;;;0.10;0.10;;;6.80;99.90;;;;;;5034759;28;20050;-90
2022/11/30 07:48:17;;;;;;;0.10;0.10;;;;;;;;;;5027764;28;20083;-89
2022/11/30 07:50:45;;;;;;;0.10;0.10;;;;;;;;;;5030000;28;20045;-89
2022/11/30 07:53:12;;;;;;;0.10;0.10;;;;;;;;;;5032373;28;20069;-88
2022/11/30 07:55:39;;;;;;;0.10;0.10;;;;;;;;;;5010663;28;20056;-88
2022/11/30 07:58:06;;;;;;;0.10;0.10;;;;;;;;;;5036412;28;20396;-87
2022/11/30 08:00:38;;;;;;;0.10;0.10;;;7.10;99.90;;;;;;5033957;28;20041;-87
2022/11/30 08:03:05;;;;;;;0.20;0.20;;;;;;;;;;5030820;28;20041;-87
2022/11/30 08:05:33;;;;;;;0.10;0.10;;;;;;;;;;5052001;28;20041;-86
2022/11/30 08:08:00;;;;;;;0.10;0.10;;;;;;;;;;5017329;28;20041;-88
2022/11/30 08:10:27;;;;;;;0.10;0.10;;;7.10;99.90;;;;;;5037879;28;20099;-88
2022/11/30 08:12:54;;;;;;;0.10;0.10;;;7.00;99.90;;;;;;5050860;28;20077;-88
2022/11/30 08:15:21;;;;;;;0.10;0.10;;;;;;;;;;5051258;28;20037;-87
2022/11/30 08:17:59;;;;;;;0.10;0.10;;;7.10;99.90;;;;;;5014406;28;20053;-87
2022/11/30 08:20:26;;;;;;;0.10;0.10;;;;;;;;;;5014738;28;20061;-85
2022/11/30 08:22:53;;;;;;;0.10;0.10;;;;;;;;;;5030095;28;20080;-87
2022/11/30 08:25:20;;;;;;;0.10;0.10;;;6.80;99.90;;;;;;5033449;28;20084;-88
2022/11/30 08:27:47;;;;;;;0.10;0.10;;;6.80;99.90;;;;;;5032986;28;20043;-86
2022/11/30 08:30:14;;;;;;;0.10;0.10;;;6.90;99.90;;;;;;5037676;28;20401;-88
2022/11/30 08:32:41;;;;;;;0.10;0.10;;;7.00;99.90;;;;;;5021361;28;20474;-86
2022/11/30 08:35:09;;;;;;;0.10;0.10;;;7.10;99.90;;;;;;5038308;28;20088;-85
2022/11/30 08:37:37;;;;;;;0.10;0.10;;;;;;;;;;5038471;28;20130;-86
2022/11/30 08:40:05;;;;;;;0.10;0.10;;;7.10;99.90;;;;;;5028160;28;20069;-86
2022/11/30 08:42:32;;;;;;;0.10;0.10;;;7.00;99.90;;;;;;5029960;28;20051;-87
2022/11/30 08:44:59;;;;;;;0.10;0.10;;;7.00;99.90;;;;;;5021555;28;20048;-87
2022/11/30 08:47:28;;;;;;;0.10;0.10;;;7.00;99.90;;;;;;5020111;28;20045;-87
2022/11/30 08:49:55;;;;;;;0.10;0.10;;;7.10;99.90;;;;;;5027826;28;20511;-88
2022/11/30 08:52:24;;;;;;;0.10;0.10;;;7.00;99.90;;;;;;5036442;28;20051;-87
2022/11/30 08:54:51;;;;;;;0.10;0.10;;;;;;;;;;5055170;28;20100;-87
2022/11/30 08:57:19;;;;;;;0.10;0.10;;;6.90;99.90;;;;;;5036041;28;20037;-87
2022/11/30 08:59:47;;;;;;;0.00;0.00;;;6.90;99.90;;;;;;5021147;28;20079;-88
2022/11/30 09:02:16;;;;;;;0.10;0.10;;;6.80;99.90;;;;;;5021492;28;20485;-89
2022/11/30 09:04:44;;;;;;;;;;;6.90;99.90;;;;;;5029672;28;20459;-85
2022/11/30 09:07:11;;;;;;;0.10;0.10;;;;;;;;;;5021396;28;19975;-86
2022/11/30 09:09:39;;;;;;;0.10;0.10;;;6.90;99.90;;;;;;5019785;28;20077;-86
2022/11/30 09:12:07;;;;;;;0.10;0.10;;;;;;;;;;5017480;28;20059;-85
2022/11/30 09:14:34;;;;;;;0.10;0.10;;;;;;;;;;5037602;28;20057;-88
2022/11/30 09:17:01;;;;;;;0.15;0.15;;;6.90;99.90;;;;;;5037633;28;20075;-86
2022/11/30 09:19:28;;;;;;;0.10;0.10;;;7.30;99.90;;;;;;5051883;28;20055;-86
2022/11/30 09:21:55;;;;;;;0.10;0.10;;;7.10;99.90;;;;;;5035840;28;20041;-89
2022/11/30 09:24:22;;;;;;;0.10;0.10;;;;;;;;;;5035471;28;20076;-86
2022/11/30 09:26:53;;;;;;;0.20;0.20;;;7.10;99.90;;;;;;5036644;28;20076;-88
2022/11/30 09:29:21;;;;;;;0.10;0.10;;;;;;;;;;5035561;28;20049;-86
2022/11/30 09:31:48;;;;;;;0.10;0.10;;;;;;;;;;5037281;28;20127;-85
2022/11/30 09:34:15;;;;;;;0.10;0.10;;;;;;;;;;5055538;28;20037;-86
2022/11/30 09:36:42;;;;;;;0.10;0.10;;;7.00;99.90;;;;;;5033582;28;20051;-87
2022/11/30 09:39:11;;;;;;;0.10;0.10;;;7.00;99.90;;;;;;5016641;28;20044;-86
2022/11/30 09:42:01;;;;;;;0.10;0.10;;;7.00;99.90;;;;;;5035079;28;20076;-89
2022/11/30 09:44:34;;;;;;;;;;;7.00;99.90;;;;;;5018917;28;20095;-86
2022/11/30 09:47:07;;;;;;;0.10;0.10;;;7.10;99.90;;;;;;5038434;28;19925;-86
2022/11/30 09:49:36;;;;;;;0.10;0.10;;;7.00;99.90;;;;;;5017434;28;20076;-86
2022/11/30 09:52:08;;;;;;;0.10;0.10;;;6.80;99.90;;;;;;5032263;28;20117;-87
2022/11/30 09:54:38;;;;;;;0.10;0.10;;;6.90;99.90;;;;;;5052584;28;20080;-89
2022/11/30 09:57:19;;;;;;;0.10;0.10;;;6.90;99.90;;;;;;5015384;28;20049;-86
2022/11/30 09:59:54;;;;;;;0.10;0.10;;;6.90;99.90;;;;;;5027492;28;20052;-86
2022/11/30 10:02:26;;;;;;;0.10;0.10;;;7.00;99.90;;;;;;5036003;28;20472;-85
2022/11/30 10:04:54;;;;;;;0.10;0.10;;;;;;;;;;5048374;28;20048;-86
2022/11/30 10:07:37;;;;;;;0.10;0.10;;;6.80;99.90;;;;;;5030877;28;20053;-86
2022/11/30 10:10:11;;;;;;;0.10;0.10;;;6.80;99.90;;;;;;5030920;28;20059;-88
2022/11/30 10:13:09;;;;;;;0.10;0.10;;;6.80;99.90;;;;;;5042945;28;20045;-85
2022/11/30 10:15:50;;;;;;;0.10;0.10;;;6.80;99.90;;;;;;5061004;28;20053;-86
2022/11/30 10:18:23;;;;;;;0.10;0.10;;;6.70;99.90;;;;;;5035053;28;20526;-85
2022/11/30 10:21:11;;;;;;;0.10;0.10;;;6.60;99.90;;;;;;5019673;28;20049;-86
2022/11/30 10:23:57;;;;;;;0.10;0.10;;;6.70;99.90;;;;;;5052760;28;20075;-86
2022/11/30 10:26:30;;;;;;;0.10;0.10;;;6.90;99.90;;;;;;5033059;28;20063;-89
2022/11/30 10:29:04;;;;;;;0.10;0.10;;;7.00;99.90;;;;;;5057173;28;20422;-89
2022/11/30 10:31:34;;;;;;;0.10;0.10;;;7.00;99.90;;;;;;5018072;28;20127;-88
2022/11/30 10:34:12;;;;;;;0.10;0.10;;;8.90;99.90;;;;;;5053594;28;20477;-86
2022/11/30 10:36:43;;;;;;;0.10;0.10;;;6.90;99.90;;;;;;5045943;28;20124;-87
2022/11/30 10:39:18;;;;;;;0.10;0.10;;;10.20;99.90;;;;;;5039105;28;20044;-90
2022/11/30 10:41:48;;;;;;;0.10;0.10;;;7.00;99.90;;;;;;5021236;28;20124;-87
2022/11/30 10:44:21;;;;;;;0.10;0.10;;;6.90;99.90;;;;;;5055515;28;20033;-87
2022/11/30 10:46:56;;;;;;;0.10;0.10;;;6.90;99.90;;;;;;5032271;28;20095;-86
2022/11/30 10:49:26;;;;;;;0.10;0.10;;;7.00;99.90;;;;;;5034577;28;20041;-88
2022/11/30 10:51:56;;;;;;;;;;;6.90;99.90;;;;;;5024498;28;20460;-88
2022/11/30 10:54:23;;;;;;;;;;;6.90;99.90;;;;;;5035786;28;19921;-87
2022/11/30 10:56:50;;;;;;;0.10;0.10;;;8.00;99.90;;;;;;5038909;28;19925;-87
2022/11/30 10:59:23;;;;;;;0.10;0.10;;;6.80;99.90;;;;;;5039900;28;20136;-86
2022/11/30 11:01:52;;;;;;;0.10;0.10;;;;;;;;;;5038712;28;20045;-89
2022/11/30 11:04:21;;;;;;;0.10;0.10;;;6.70;99.90;;;;;;5039031;28;20045;-86
2022/11/30 11:06:54;;;;;;;0.10;0.10;;;6.60;99.90;;;;;;5043673;28;20079;-87
2022/11/30 11:09:33;;;;;;;0.10;0.10;;;6.70;99.90;;;;;;5037087;28;20441;-87
2022/11/30 11:12:02;;;;;;;0.20;0.20;;;6.70;99.90;;;;;;5033933;28;20044;-86
2022/11/30 11:14:31;;;;;;;0.10;0.10;;;6.70;99.90;;;;;;5037427;28;20073;-85
2022/11/30 11:17:18;;;;;;;0.10;0.10;;;6.70;99.90;;;;;;5010805;28;20055;-88
2022/11/30 11:19:46;;;;;;;0.10;0.10;;;6.60;99.90;;;;;;5025688;28;20045;-83
2022/11/30 11:22:16;;;;;;;0.10;0.10;;;6.70;99.90;;;;;;5043568;28;20486;-86
2022/11/30 11:24:44;;;;;;;0.10;0.10;;;6.70;99.90;;;;;;5044948;28;20115;-86
2022/11/30 11:27:22;;;;;;;0.10;0.10;;;6.70;99.90;;;;;;5034469;28;20076;-87
2022/11/30 11:30:00;;;;;;;0.10;0.10;;;6.70;99.90;;;;;;5052251;28;20068;-86
2022/11/30 11:32:29;;;;;;;0.10;0.10;;;;;;;;;;5036795;28;20077;-87
2022/11/30 11:34:57;;;;;;;0.10;0.10;;;6.70;99.90;;;;;;5053684;28;20041;-85
2022/11/30 11:37:27;;;;;;;0.10;0.10;;;6.70;99.90;;;;;;5052873;28;20471;-85
2022/11/30 11:40:00;;;;;;;0.15;0.15;;;6.70;99.90;;;;;;5035422;28;20049;-87
2022/11/30 11:42:30;;;;;;;0.10;0.10;;;6.80;99.90;;;;;;5018427;28;20041;-86
2022/11/30 11:45:00;;;;;;;0.10;0.10;;;6.70;99.90;;;;;;5033322;28;20512;-87
2022/11/30 11:47:36;;;;;;;0.10;0.10;;;6.70;99.90;;;;;;5009754;28;20056;-85
2022/11/30 11:50:24;;;;;;;0.10;0.10;;;6.70;99.90;;;;;;5054201;28;20051;-86
2022/11/30 11:53:21;;;;;;;0.10;0.10;;;6.80;99.90;;;;;;5050194;28;20068;-87
2022/11/30 11:55:56;;;;;;;0.10;0.10;;;6.80;99.90;;;;;;5026801;28;20098;-87
2022/11/30 11:58:36;;;;;;;0.10;0.10;;;6.80;99.90;;;;;;5029064;28;20041;-85
2022/11/30 12:01:09;;;;;;;0.10;0.10;;;7.30;99.90;;;;;;5018914;28;20068;-86
2022/11/30 12:14:45;;;;;;;0.10;0.10;;;6.90;99.90;;;;;;5010434;28;20054;-86
2022/11/30 12:17:25;;;;;;;0.10;0.10;;;9.10;99.90;;;;;;5020593;28;20057;-89
2022/11/30 12:20:02;;;;;;;0.10;0.10;;;6.90;99.90;;;;;;5017405;28;20056;-85
2022/11/30 12:23:00;;;;;;;0.10;0.10;;;6.90;99.90;;;;;;5049191;28;20049;-89
2022/11/30 12:25:30;;;;;;;0.10;0.10;;;6.90;99.90;;;;;;5049285;28;20057;-88
2022/11/30 12:28:14;;;;;;;0.10;0.10;;;6.80;99.90;;;;;;5077953;22;20048;-83
2022/11/30 12:30:48;;;;;;;0.10;0.10;;;6.80;99.90;;;;;;5066957;28;20360;-84
2022/11/30 12:33:29;;;;;;;0.10;0.10;;;6.70;99.90;;;;;;5052434;28;20475;-83
2022/11/30 12:36:49;;;;;;;0.10;0.10;;;6.70;99.90;;;;;;4981441;28;20069;-83
2022/11/30 12:39:35;;;;;;;0.10;0.10;;;6.60;99.90;;;;;;4971811;28;20120;-81
2022/11/30 12:45:41;;;;;;;0.10;0.10;;;6.40;99.90;;;;;;4932891;28;20047;-86
2022/11/30 12:48:19;;;;;;;0.10;0.10;;;6.40;99.90;;;;;;4938754;29;20052;-85
2022/11/30 12:51:00;;;;;;;0.10;0.10;;;6.40;99.90;;;;;;4946290;28;20047;-86
2022/11/30 12:53:33;;;;;;;0.10;0.10;;;6.40;99.90;;;;;;4987748;28;20050;-84
2022/11/30 12:56:14;;;;;;;0.10;0.10;;;6.40;99.90;;;;;;4996834;28;20133;-85
2022/11/30 12:58:50;;;;;;;0.10;0.10;;;6.30;99.90;;;;;;4994025;28;20049;-86
2022/11/30 13:01:38;;;;;;;0.10;0.10;;;8.50;99.90;;;;;;4992074;28;20050;-86
2022/11/30 13:04:29;;;;;;;0.10;0.10;;;6.40;99.90;;;;;;4994548;28;20050;-86
2022/11/30 13:07:25;;;;;;;0.10;0.10;;;6.50;99.90;;;;;;5009776;28;20044;-87
2022/11/30 13:10:04;;;;;;;0.10;0.10;;;7.80;99.90;;;;;;4992204;28;20429;-86
2022/11/30 13:12:53;;;;;;;0.10;0.10;;;6.60;99.90;;;;;;4991711;28;20092;-86
2022/11/30 13:15:48;;;;;;;0.10;0.10;;;6.70;99.90;;;;;;5009851;28;20140;-86
2022/11/30 13:19:12;;;;;;;0.10;0.10;;;6.60;99.90;;;;;;4993611;28;20097;-86
2022/11/30 13:22:08;;;;;;;0.10;0.10;;;6.70;99.90;;;;;;4994508;28;20140;-87
2022/11/30 13:24:41;;;;;;;0.10;0.10;;;6.70;99.90;;;;;;5054315;28;20149;-87
2022/11/30 13:27:17;;;;;;;0.10;0.10;;;6.70;99.90;;;;;;5045848;28;20131;-86
2022/11/30 13:29:53;;;;;;;0.10;0.10;;;6.70;99.90;;;;;;5048281;28;20049;-85
2022/11/30 13:32:21;;;;;;;0.00;0.00;;;;;;;;;;5066603;28;20495;-85
2022/11/30 13:35:39;;;;;;;0.10;0.10;;;6.80;99.90;;;;;;5066983;28;20052;-86
2022/11/30 13:38:16;;;;;;;0.10;0.10;;;6.80;99.90;;;;;;5064885;28;20032;-86
2022/11/30 13:41:04;;;;;;;0.10;0.10;;;6.80;99.90;;;;;;5057164;28;20036;-86
2022/11/30 13:43:35;;;;;;;0.10;0.10;;;6.80;99.90;;;;;;5054163;28;20467;-85
2022/11/30 13:46:05;;;;;;;0.10;0.10;;;6.80;99.90;;;;;;5051593;28;20093;-87
2022/11/30 13:48:35;;;;;;;;;;;7.40;99.90;;;;;;5068593;28;20099;-88
2022/11/30 13:51:02;;;;;;;0.10;0.10;;;6.70;99.90;;;;;;5054781;28;20054;-87
2022/11/30 13:53:36;;;;;;;0.10;0.10;;;6.60;99.90;;;;;;5056093;28;20068;-87
2022/11/30 13:56:19;;;;;;;0.10;0.10;;;6.60;99.90;;;;;;5048876;28;20067;-87
2022/11/30 13:59:19;;;;;;;0.20;0.20;;;6.50;99.90;;;;;;5044957;28;20053;-87
2022/11/30 14:01:46;;;;;;;0.10;0.10;;;6.50;99.90;;;;;;5047688;28;20549;-87
2022/11/30 14:04:43;;;;;;;0.10;0.10;;;6.50;99.90;;;;;;5070198;28;20041;-86
2022/11/30 14:07:35;;;;;;;0.10;0.10;;;6.50;99.90;;;;;;5068530;28;20065;-86
2022/11/30 14:10:28;;;;;;;0.10;0.10;;;6.60;99.90;;;;;;5066628;28;20049;-86
2022/11/30 14:13:00;;;;;;;0.10;0.10;;;6.60;99.90;;;;;;5049549;28;20040;-87